Time;durP1;ratioP1;P1;durP2;ratioP2;P2;SDS_P1;SDS_P2;PMS_P1;PMS_P2;Temp;Humidity;BMP_temperature;BMP_pressure;BME280_temperature;BME280_humidity;BME280_pressure;Samples;Min_cycle;Max_cycle;Signal;HPM_P1;HPM_P2
2023/12/06 00:00:58;;;;;;;1.50;1.50;;;16.20;64.00;;;;;;5108924;27;43926;-71
2023/12/06 00:03:26;;;;;;;1.40;1.40;;;16.20;64.00;;;;;;5109387;27;43338;-70
2023/12/06 00:05:54;;;;;;;2.30;2.20;;;16.20;64.00;;;;;;5109465;27;43576;-70
2023/12/06 00:08:22;;;;;;;1.50;1.50;;;16.10;64.20;;;;;;5108676;27;43585;-70
2023/12/06 00:10:52;;;;;;;1.53;1.53;;;16.20;64.30;;;;;;5108416;27;43371;-71
2023/12/06 00:13:20;;;;;;;1.63;1.63;;;16.10;64.20;;;;;;5109381;27;43367;-71
2023/12/06 00:15:48;;;;;;;1.50;1.50;;;16.10;64.20;;;;;;5109634;27;43419;-71
2023/12/06 00:18:17;;;;;;;1.30;1.30;;;16.10;64.30;;;;;;5109018;27;43611;-71
2023/12/06 00:20:45;;;;;;;1.77;1.73;;;16.10;64.40;;;;;;5108358;27;43476;-71
2023/12/06 00:23:13;;;;;;;1.50;1.50;;;16.10;64.30;;;;;;5095544;27;43401;-71
2023/12/06 00:25:42;;;;;;;1.40;1.40;;;16.00;64.40;;;;;;5122743;27;43437;-70
2023/12/06 00:28:11;;;;;;;1.60;1.60;;;16.00;64.40;;;;;;5123211;27;43790;-70
2023/12/06 00:30:39;;;;;;;1.60;1.60;;;16.00;64.40;;;;;;5123118;27;43403;-70
2023/12/06 00:33:07;;;;;;;1.40;1.40;;;16.00;64.40;;;;;;5123471;27;43426;-70
2023/12/06 00:35:35;;;;;;;1.60;1.60;;;16.00;64.50;;;;;;5124337;27;43728;-70
2023/12/06 00:38:03;;;;;;;1.60;1.60;;;16.00;64.50;;;;;;5122798;27;43603;-70
2023/12/06 00:40:31;;;;;;;1.30;1.30;;;16.00;64.50;;;;;;5121779;27;43333;-70
2023/12/06 00:42:59;;;;;;;1.17;1.17;;;16.00;64.70;;;;;;5110102;27;43375;-70
2023/12/06 00:45:29;;;;;;;1.40;1.40;;;16.00;64.60;;;;;;5111155;27;43437;-70
2023/12/06 00:47:57;;;;;;;1.50;1.50;;;16.10;64.30;;;;;;5101622;27;43568;-71
2023/12/06 00:50:24;;;;;;;1.33;1.33;;;16.20;64.10;;;;;;5108233;27;44033;-71
2023/12/06 00:52:52;;;;;;;1.40;1.40;;;16.20;64.00;;;;;;5108545;27;43425;-71
2023/12/06 00:55:20;;;;;;;1.60;1.60;;;16.20;64.00;;;;;;5105006;27;43446;-71
2023/12/06 00:57:48;;;;;;;1.30;1.30;;;16.20;64.10;;;;;;5108401;27;43937;-71
2023/12/06 01:00:17;;;;;;;1.40;1.40;;;16.20;64.30;;;;;;5108349;27;43461;-71
2023/12/06 01:02:46;;;;;;;1.30;1.30;;;16.10;64.20;;;;;;5088551;27;43399;-71
2023/12/06 01:05:15;;;;;;;1.33;1.33;;;16.10;64.20;;;;;;5109036;27;43384;-71
2023/12/06 01:07:43;;;;;;;1.20;1.20;;;16.10;64.30;;;;;;5107534;27;45034;-71
2023/12/06 01:10:11;;;;;;;1.30;1.30;;;16.10;64.40;;;;;;5107566;27;43378;-71
2023/12/06 01:12:39;;;;;;;1.30;1.30;;;16.10;64.30;;;;;;5098837;27;43383;-71
2023/12/06 01:15:09;;;;;;;1.37;1.37;;;16.10;64.40;;;;;;5108537;27;43975;-71
2023/12/06 01:17:37;;;;;;;1.30;1.30;;;16.00;64.50;;;;;;5104096;27;45738;-70
2023/12/06 01:20:08;;;;;;;1.20;1.20;;;16.10;64.60;;;;;;5102348;27;44844;-70
2023/12/06 01:22:37;;;;;;;1.37;1.37;;;16.10;64.50;;;;;;5100416;27;43501;-70
2023/12/06 01:25:05;;;;;;;1.20;1.20;;;16.00;64.50;;;;;;5108548;27;43429;-71
2023/12/06 01:27:35;;;;;;;1.30;1.30;;;16.00;64.50;;;;;;5104170;27;45799;-71
2023/12/06 01:30:04;;;;;;;1.30;1.30;;;16.00;64.50;;;;;;5107730;27;43859;-71
2023/12/06 01:32:39;;;;;;;1.40;1.40;;;16.00;64.60;;;;;;5101056;27;43470;-71
2023/12/06 01:35:09;;;;;;;1.30;1.30;;;16.00;64.70;;;;;;5125444;27;43442;-67
2023/12/06 01:37:38;;;;;;;1.40;1.40;;;16.00;64.60;;;;;;5124457;27;46021;-68
2023/12/06 01:40:09;;;;;;;1.30;1.30;;;16.10;64.40;;;;;;5132686;27;43402;-68
2023/12/06 01:42:37;;;;;;;1.20;1.20;;;16.20;64.20;;;;;;5133338;27;43386;-68
2023/12/06 01:45:08;;;;;;;1.27;1.27;;;16.20;64.10;;;;;;5132867;27;43458;-69
2023/12/06 01:47:36;;;;;;;1.30;1.30;;;16.20;64.20;;;;;;5132659;27;43590;-68
2023/12/06 01:50:05;;;;;;;1.30;1.30;;;16.20;64.30;;;;;;5133651;27;43309;-67
2023/12/06 01:52:35;;;;;;;1.40;1.40;;;16.10;64.30;;;;;;5121400;27;43420;-68
2023/12/06 01:55:03;;;;;;;1.23;1.23;;;16.10;64.30;;;;;;5118922;27;43411;-71
2023/12/06 01:57:31;;;;;;;1.33;1.33;;;16.10;64.30;;;;;;5111353;27;43894;-71
2023/12/06 01:59:59;;;;;;;1.20;1.20;;;16.10;64.30;;;;;;5110954;27;43427;-71
2023/12/06 02:02:27;;;;;;;1.20;1.20;;;16.10;64.30;;;;;;5095866;27;43428;-71
2023/12/06 02:04:56;;;;;;;1.40;1.40;;;16.10;64.30;;;;;;5111779;27;43895;-70
2023/12/06 02:07:24;;;;;;;1.10;1.10;;;16.10;64.40;;;;;;5099466;27;45471;-71
2023/12/06 02:09:54;;;;;;;1.40;1.40;;;16.00;64.50;;;;;;5113302;27;43569;-71
2023/12/06 02:12:22;;;;;;;1.30;1.30;;;16.00;64.50;;;;;;5111276;27;43762;-70
2023/12/06 02:14:50;;;;;;;1.10;1.10;;;16.00;64.40;;;;;;5111407;27;43409;-70
2023/12/06 02:17:18;;;;;;;1.10;1.10;;;16.10;64.50;;;;;;5114473;27;43964;-71
2023/12/06 02:19:47;;;;;;;1.10;1.10;;;16.00;64.50;;;;;;5112682;27;43571;-71
2023/12/06 02:22:15;;;;;;;1.00;1.00;;;16.00;64.50;;;;;;5110043;27;43438;-71
2023/12/06 02:24:43;;;;;;;1.30;1.30;;;16.00;64.50;;;;;;5111283;27;43723;-71
2023/12/06 02:27:12;;;;;;;1.10;1.10;;;16.00;64.70;;;;;;5110811;27;43579;-71
2023/12/06 02:29:41;;;;;;;1.13;1.13;;;16.00;64.70;;;;;;5110807;27;43406;-71
2023/12/06 02:32:09;;;;;;;1.20;1.20;;;16.10;64.30;;;;;;5110391;27;43461;-70
2023/12/06 02:34:37;;;;;;;1.30;1.30;;;16.20;64.10;;;;;;5111168;27;43396;-70
2023/12/06 02:37:06;;;;;;;1.20;1.20;;;16.20;64.00;;;;;;5110667;27;43942;-71
2023/12/06 02:39:36;;;;;;;1.30;1.30;;;16.20;64.10;;;;;;5110762;27;43320;-71
2023/12/06 02:42:05;;;;;;;1.10;1.10;;;16.20;64.20;;;;;;5110057;27;43381;-71
2023/12/06 02:44:34;;;;;;;1.10;1.10;;;16.10;64.30;;;;;;5112474;27;43397;-72
2023/12/06 02:47:02;;;;;;;1.23;1.23;;;16.10;64.20;;;;;;5109847;27;44008;-71
2023/12/06 02:49:30;;;;;;;1.13;1.13;;;16.10;64.40;;;;;;5110258;27;43791;-71
2023/12/06 02:51:58;;;;;;;1.20;1.20;;;16.10;64.30;;;;;;5110338;27;43342;-71
2023/12/06 02:54:26;;;;;;;1.20;1.20;;;16.10;64.30;;;;;;5110893;27;43892;-71
2023/12/06 02:56:54;;;;;;;1.20;1.20;;;16.10;64.30;;;;;;5110410;27;43766;-72
2023/12/06 02:59:22;;;;;;;1.20;1.20;;;16.10;64.50;;;;;;5110493;27;43683;-71
2023/12/06 03:01:52;;;;;;;1.40;1.30;;;16.00;64.50;;;;;;5109861;27;43440;-71
2023/12/06 03:04:20;;;;;;;1.10;1.10;;;16.00;64.50;;;;;;5119041;27;43515;-67
2023/12/06 03:06:48;;;;;;;1.33;1.27;;;16.10;64.50;;;;;;5135442;27;43944;-68
2023/12/06 03:09:16;;;;;;;1.20;1.20;;;16.10;64.60;;;;;;5135144;27;43364;-67
2023/12/06 03:11:44;;;;;;;1.00;1.00;;;16.00;64.50;;;;;;5134740;27;43493;-68
2023/12/06 03:14:12;;;;;;;1.20;1.20;;;16.00;64.50;;;;;;5135977;27;43444;-66
2023/12/06 03:16:40;;;;;;;1.30;1.30;;;16.00;64.60;;;;;;5134691;27;43567;-67
2023/12/06 03:19:09;;;;;;;1.30;1.30;;;16.00;64.70;;;;;;5135308;27;43666;-68
2023/12/06 03:21:37;;;;;;;1.10;1.10;;;16.00;64.60;;;;;;5134538;27;43469;-68
2023/12/06 03:24:06;;;;;;;1.40;1.40;;;16.20;64.40;;;;;;5135514;27;43425;-66
2023/12/06 03:26:34;;;;;;;1.20;1.20;;;16.20;64.00;;;;;;5135189;27;43884;-68
2023/12/06 03:29:02;;;;;;;1.30;1.30;;;16.20;64.00;;;;;;5134399;27;43487;-70
2023/12/06 03:31:30;;;;;;;1.30;1.30;;;16.20;64.00;;;;;;5135150;27;43390;-70
2023/12/06 03:33:58;;;;;;;1.20;1.20;;;16.20;64.10;;;;;;5135504;27;43347;-70
2023/12/06 03:36:27;;;;;;;1.40;1.40;;;16.20;64.40;;;;;;5134885;27;43603;-70
2023/12/06 03:38:55;;;;;;;1.40;1.30;;;16.10;64.20;;;;;;5134576;27;43316;-68
2023/12/06 03:41:23;;;;;;;1.20;1.20;;;16.10;64.30;;;;;;5135103;27;43541;-69
2023/12/06 03:43:51;;;;;;;1.20;1.20;;;16.10;64.30;;;;;;5128506;27;43407;-68
2023/12/06 03:46:30;;;;;;;1.20;1.20;;;16.10;64.30;;;;;;5134179;27;43589;-68
2023/12/06 03:48:58;;;;;;;1.40;1.40;;;16.10;64.40;;;;;;5134904;27;43388;-69
2023/12/06 03:51:28;;;;;;;1.50;1.50;;;16.00;64.40;;;;;;5134339;27;43387;-68
2023/12/06 03:53:56;;;;;;;1.40;1.40;;;16.00;64.50;;;;;;5125456;27;43301;-71
2023/12/06 03:56:25;;;;;;;1.30;1.30;;;16.00;64.50;;;;;;5109346;27;43603;-71
2023/12/06 03:58:53;;;;;;;1.30;1.30;;;16.00;64.50;;;;;;5109271;27;43705;-71
2023/12/06 04:01:21;;;;;;;1.40;1.40;;;16.00;64.50;;;;;;5109553;27;43647;-71
2023/12/06 04:03:49;;;;;;;1.20;1.20;;;16.00;64.60;;;;;;5109697;27;44079;-70
2023/12/06 04:06:17;;;;;;;1.30;1.30;;;16.00;64.60;;;;;;5109447;27;43957;-71
2023/12/06 04:08:47;;;;;;;1.60;1.50;;;16.00;64.70;;;;;;5109037;27;43461;-71
2023/12/06 04:11:15;;;;;;;1.43;1.43;;;16.00;64.70;;;;;;5108981;27;44003;-71
2023/12/06 04:13:43;;;;;;;1.40;1.40;;;16.00;64.60;;;;;;5108731;27;43420;-71
2023/12/06 04:16:11;;;;;;;1.50;1.50;;;16.00;64.60;;;;;;5099956;27;44214;-71
2023/12/06 04:18:39;;;;;;;1.27;1.27;;;16.00;64.60;;;;;;5109013;27;43426;-71
2023/12/06 04:21:07;;;;;;;1.30;1.30;;;16.00;64.60;;;;;;5108491;27;43419;-71
2023/12/06 04:23:35;;;;;;;1.30;1.30;;;16.00;64.60;;;;;;5105256;27;43383;-71
2023/12/06 04:26:05;;;;;;;1.70;1.60;;;16.00;64.60;;;;;;5108909;27;43612;-71
2023/12/06 04:28:33;;;;;;;1.63;1.63;;;16.00;64.80;;;;;;5108813;27;43498;-71
2023/12/06 04:31:01;;;;;;;1.43;1.43;;;16.10;64.70;;;;;;5109031;27;43768;-70
2023/12/06 04:33:29;;;;;;;1.70;1.70;;;16.20;64.50;;;;;;5108950;27;43458;-71
2023/12/06 04:35:57;;;;;;;1.50;1.50;;;16.30;64.10;;;;;;5108687;27;43882;-71
2023/12/06 04:38:25;;;;;;;1.47;1.47;;;16.30;64.00;;;;;;5108588;27;43844;-71
2023/12/06 04:40:53;;;;;;;1.80;1.80;;;16.30;63.90;;;;;;5103029;27;43426;-71
2023/12/06 04:43:22;;;;;;;1.67;1.67;;;16.30;64.10;;;;;;5109255;27;43987;-71
2023/12/06 04:45:50;;;;;;;1.60;1.60;;;16.20;64.30;;;;;;5108363;27;43713;-70
2023/12/06 04:48:18;;;;;;;1.83;1.80;;;16.20;64.10;;;;;;5108767;27;43426;-71
2023/12/06 04:50:46;;;;;;;1.40;1.40;;;16.20;64.10;;;;;;5104707;27;43416;-71
2023/12/06 04:53:14;;;;;;;1.57;1.50;;;16.20;64.20;;;;;;5108739;27;44382;-71
2023/12/06 04:55:43;;;;;;;1.50;1.50;;;16.20;64.30;;;;;;5108409;27;43845;-71
2023/12/06 04:58:11;;;;;;;1.60;1.60;;;16.20;64.40;;;;;;5108768;27;43368;-71
2023/12/06 05:00:40;;;;;;;1.93;1.83;;;16.20;64.40;;;;;;5108799;27;43620;-71
2023/12/06 05:03:09;;;;;;;3.53;2.73;;;16.10;65.10;;;;;;5086413;27;43566;-71
2023/12/06 05:05:37;;;;;;;2.40;2.30;;;16.10;64.30;;;;;;5103632;27;46248;-71
2023/12/06 05:08:05;;;;;;;2.40;2.30;;;16.10;64.40;;;;;;5108339;27;43412;-72
2023/12/06 05:10:33;;;;;;;2.47;2.27;;;16.10;64.30;;;;;;5107040;27;43462;-72
2023/12/06 05:13:01;;;;;;;2.47;2.37;;;16.10;64.30;;;;;;5108646;27;43964;-71
2023/12/06 05:15:30;;;;;;;3.70;2.67;;;16.10;64.40;;;;;;5108198;27;43857;-72
2023/12/06 05:17:59;;;;;;;3.00;2.80;;;16.10;64.50;;;;;;5107987;27;43437;-72
2023/12/06 05:20:27;;;;;;;3.73;2.93;;;16.10;64.50;;;;;;5109687;27;43619;-71
2023/12/06 05:22:56;;;;;;;3.37;3.10;;;16.10;64.50;;;;;;5108245;27;43577;-72
2023/12/06 05:25:23;;;;;;;5.93;3.20;;;16.20;64.40;;;;;;5113309;27;45536;-67
2023/12/06 05:27:52;;;;;;;6.33;3.77;;;16.30;64.10;;;;;;5133123;27;43399;-68
2023/12/06 05:30:20;;;;;;;3.43;3.13;;;16.30;63.90;;;;;;5132393;27;43472;-68
2023/12/06 05:32:48;;;;;;;3.50;3.20;;;16.30;63.90;;;;;;5124599;27;43384;-70
2023/12/06 05:35:17;;;;;;;5.77;3.60;;;16.30;64.00;;;;;;5132909;27;43628;-69
2023/12/06 05:37:45;;;;;;;5.97;3.73;;;16.30;64.10;;;;;;5130104;27;43379;-69
2023/12/06 05:40:13;;;;;;;5.80;3.50;;;16.20;64.00;;;;;;5132391;27;43371;-67
2023/12/06 05:42:42;;;;;;;3.67;3.27;;;16.20;64.00;;;;;;5132779;27;43590;-66
2023/12/06 05:45:10;;;;;;;3.63;3.33;;;16.20;64.10;;;;;;5129396;27;45738;-67
2023/12/06 05:47:38;;;;;;;4.10;3.30;;;16.20;64.20;;;;;;5132828;27;43375;-67
2023/12/06 05:50:10;;;;;;;4.50;3.53;;;16.20;65.00;;;;;;5132186;27;43375;-67
2023/12/06 05:52:39;;;;;;;4.63;4.03;;;16.20;64.40;;;;;;5132846;27;43419;-68
2023/12/06 05:55:08;;;;;;;8.03;4.47;;;16.10;63.90;;;;;;5132185;27;43596;-67
2023/12/06 05:57:36;;;;;;;7.73;4.10;;;16.10;64.00;;;;;;5132291;27;43438;-67
2023/12/06 06:00:08;;;;;;;4.20;3.80;;;16.10;64.10;;;;;;5132413;27;43470;-67
2023/12/06 06:02:41;;;;;;;5.53;4.20;;;16.10;64.10;;;;;;5132930;27;43355;-67
2023/12/06 06:05:10;;;;;;;5.80;4.10;;;16.10;64.20;;;;;;5132872;27;43595;-67
2023/12/06 06:07:39;;;;;;;6.37;4.40;;;16.10;64.30;;;;;;5132530;27;43346;-69
2023/12/06 06:10:10;;;;;;;5.63;4.10;;;16.10;64.30;;;;;;5131789;27;43443;-67
2023/12/06 06:12:38;;;;;;;5.77;4.30;;;16.10;64.30;;;;;;5133192;27;43364;-68
2023/12/06 06:15:08;;;;;;;8.03;4.33;;;16.10;64.30;;;;;;5118142;27;43929;-70
2023/12/06 06:17:36;;;;;;;5.03;3.93;;;16.20;64.10;;;;;;5121326;27;43560;-70
2023/12/06 06:20:05;;;;;;;5.70;4.40;;;16.20;63.90;;;;;;5120912;27;43413;-70
2023/12/06 06:22:34;;;;;;;3.73;3.43;;;16.30;63.90;;;;;;5120816;27;43458;-69
2023/12/06 06:25:04;;;;;;;4.53;4.07;;;16.20;63.90;;;;;;5121027;27;43586;-70
2023/12/06 06:27:32;;;;;;;5.97;4.23;;;16.20;64.00;;;;;;5107535;27;44817;-70
2023/12/06 06:30:05;;;;;;;6.10;4.50;;;16.20;64.10;;;;;;5121422;27;43423;-70
2023/12/06 06:32:36;;;;;;;4.43;3.87;;;16.20;64.10;;;;;;5117168;27;43482;-70
2023/12/06 06:35:07;;;;;;;4.87;4.03;;;16.20;64.20;;;;;;5111796;27;43886;-71
2023/12/06 06:37:35;;;;;;;5.03;4.00;;;16.20;64.30;;;;;;5108930;27;43452;-72
2023/12/06 06:40:07;;;;;;;3.93;3.63;;;16.20;64.30;;;;;;5103435;27;43398;-71
2023/12/06 06:42:35;;;;;;;5.03;4.00;;;16.10;64.30;;;;;;5109838;27;43449;-71
2023/12/06 06:45:05;;;;;;;4.10;3.80;;;16.10;64.30;;;;;;5110465;27;43757;-72
2023/12/06 06:47:36;;;;;;;5.27;4.30;;;16.10;64.30;;;;;;5110545;27;43535;-72
2023/12/06 06:50:05;;;;;;;4.20;3.90;;;16.10;64.30;;;;;;5110182;27;43955;-71
2023/12/06 06:52:33;;;;;;;4.20;3.80;;;16.10;64.30;;;;;;5110654;27;43488;-72
2023/12/06 06:55:01;;;;;;;4.23;3.93;;;16.20;64.40;;;;;;5102324;27;45760;-72
2023/12/06 06:57:31;;;;;;;4.17;3.60;;;16.10;64.30;;;;;;5106842;27;44494;-72
2023/12/06 06:59:59;;;;;;;4.03;3.73;;;16.10;64.30;;;;;;5102323;27;43486;-71
2023/12/06 07:02:28;;;;;;;4.10;3.77;;;16.10;64.30;;;;;;5110635;27;43932;-72
2023/12/06 07:04:56;;;;;;;4.33;3.93;;;16.10;64.30;;;;;;5110432;27;43595;-71
2023/12/06 07:07:24;;;;;;;4.50;4.10;;;16.20;64.40;;;;;;5110171;27;43703;-71
2023/12/06 07:09:53;;;;;;;4.20;3.90;;;16.20;64.20;;;;;;5109713;27;43386;-71
2023/12/06 07:12:21;;;;;;;3.73;3.53;;;16.30;63.80;;;;;;5110536;27;43542;-71
2023/12/06 07:14:51;;;;;;;4.90;3.93;;;16.30;63.80;;;;;;5108193;27;43603;-71
2023/12/06 07:17:19;;;;;;;4.20;3.80;;;16.30;63.80;;;;;;5110150;27;43446;-71
2023/12/06 07:19:47;;;;;;;4.20;3.80;;;16.30;64.60;;;;;;5102213;27;43437;-71
2023/12/06 07:22:15;;;;;;;4.27;3.87;;;16.30;64.00;;;;;;5109556;27;44000;-71
2023/12/06 07:24:44;;;;;;;3.87;3.57;;;16.30;64.00;;;;;;5118310;27;44078;-70
2023/12/06 07:27:12;;;;;;;3.70;3.50;;;16.30;64.00;;;;;;5124397;27;43307;-70
2023/12/06 07:29:41;;;;;;;3.77;3.53;;;16.20;64.70;;;;;;5121782;27;43414;-70
2023/12/06 07:32:11;;;;;;;4.17;3.80;;;16.20;64.00;;;;;;5123854;27;43341;-70
2023/12/06 07:34:39;;;;;;;4.43;4.10;;;16.20;64.10;;;;;;5123859;27;43837;-70
2023/12/06 07:37:18;;;;;;;4.57;4.17;;;16.20;64.20;;;;;;5123958;27;43375;-70
2023/12/06 07:39:46;;;;;;;4.53;4.17;;;16.10;64.20;;;;;;5098597;27;43381;-70
2023/12/06 07:42:15;;;;;;;4.10;3.70;;;16.20;64.30;;;;;;5126014;27;43437;-70
2023/12/06 07:44:43;;;;;;;4.17;3.97;;;16.20;64.30;;;;;;5128745;27;43711;-70
2023/12/06 07:47:12;;;;;;;3.80;3.50;;;16.10;64.20;;;;;;5134389;27;43485;-70
2023/12/06 07:49:41;;;;;;;4.53;4.13;;;16.10;64.30;;;;;;5134442;27;43400;-69
2023/12/06 07:52:09;;;;;;;4.70;4.37;;;16.10;64.30;;;;;;5134854;27;43368;-70
2023/12/06 07:54:37;;;;;;;4.30;4.00;;;16.10;64.30;;;;;;5134705;27;43819;-70
2023/12/06 07:57:06;;;;;;;5.03;4.60;;;16.10;64.30;;;;;;5134521;27;43445;-68
2023/12/06 07:59:34;;;;;;;4.60;4.40;;;16.10;64.30;;;;;;5134740;27;43402;-68
2023/12/06 08:02:02;;;;;;;4.60;4.30;;;16.20;64.30;;;;;;5135254;27;43359;-69
2023/12/06 08:04:31;;;;;;;4.53;4.30;;;16.30;63.90;;;;;;5134291;27;43902;-69
2023/12/06 08:06:59;;;;;;;4.80;4.40;;;16.30;63.60;;;;;;5133266;27;43348;-70
2023/12/06 08:09:27;;;;;;;3.80;3.60;;;16.30;63.60;;;;;;5134460;27;43326;-69
2023/12/06 08:11:57;;;;;;;4.47;4.27;;;16.30;63.80;;;;;;5130932;27;43442;-70
2023/12/06 08:14:26;;;;;;;4.63;4.20;;;16.30;63.80;;;;;;5129568;27;45969;-67
2023/12/06 08:16:54;;;;;;;4.63;4.33;;;16.30;63.90;;;;;;5134244;27;43925;-69
2023/12/06 08:19:22;;;;;;;4.40;4.13;;;16.30;63.90;;;;;;5133469;27;43422;-67
2023/12/06 08:21:51;;;;;;;4.07;3.83;;;16.30;64.00;;;;;;5133897;27;43378;-68
2023/12/06 08:24:20;;;;;;;4.00;3.70;;;16.30;64.10;;;;;;5133687;27;43743;-69
2023/12/06 08:26:48;;;;;;;4.17;3.87;;;16.20;64.00;;;;;;5129183;27;43381;-69
2023/12/06 08:29:16;;;;;;;4.23;3.93;;;16.20;64.20;;;;;;5133508;27;43926;-67
2023/12/06 08:31:44;;;;;;;4.80;4.40;;;16.20;64.30;;;;;;5132558;27;43450;-68
2023/12/06 08:34:12;;;;;;;4.43;4.13;;;16.20;65.00;;;;;;5129536;27;43935;-70
2023/12/06 08:36:40;;;;;;;4.53;4.23;;;16.20;64.30;;;;;;5120393;27;43400;-70
2023/12/06 08:39:09;;;;;;;3.93;3.63;;;16.20;64.40;;;;;;5122438;27;43473;-70
2023/12/06 08:41:37;;;;;;;4.40;4.10;;;16.20;64.40;;;;;;5118850;27;43517;-69
2023/12/06 08:44:07;;;;;;;4.17;3.93;;;16.10;64.30;;;;;;5123366;27;43598;-70
2023/12/06 08:46:35;;;;;;;4.70;4.30;;;16.20;64.50;;;;;;5122907;27;43413;-70
2023/12/06 08:49:03;;;;;;;4.93;4.60;;;16.10;64.40;;;;;;5123060;27;43433;-70
2023/12/06 08:51:31;;;;;;;4.77;4.47;;;16.20;64.40;;;;;;5123020;27;43418;-70
2023/12/06 08:53:59;;;;;;;4.80;4.43;;;16.20;64.10;;;;;;5124609;27;43880;-67
2023/12/06 08:56:29;;;;;;;5.30;4.87;;;16.30;63.90;;;;;;5133913;27;43467;-68
2023/12/06 08:58:57;;;;;;;4.40;4.20;;;16.30;63.90;;;;;;5133727;27;43358;-67
2023/12/06 09:01:25;;;;;;;4.50;4.30;;;16.30;63.90;;;;;;5133708;27;43423;-68
2023/12/06 09:03:53;;;;;;;4.43;4.13;;;16.30;64.00;;;;;;5133392;27;43868;-68
2023/12/06 09:06:21;;;;;;;5.20;4.80;;;16.30;64.10;;;;;;5133669;27;43283;-68
2023/12/06 09:08:50;;;;;;;5.37;4.77;;;16.20;64.00;;;;;;5125500;27;43455;-67
2023/12/06 09:11:21;;;;;;;4.20;3.90;;;16.30;64.20;;;;;;5133434;27;43577;-68
2023/12/06 09:13:50;;;;;;;4.70;4.40;;;16.20;64.20;;;;;;5133084;27;43597;-69
2023/12/06 09:16:18;;;;;;;4.40;4.10;;;16.20;64.30;;;;;;5133192;27;43425;-67
2023/12/06 09:18:46;;;;;;;4.70;4.30;;;16.20;64.30;;;;;;5126011;27;43380;-69
2023/12/06 09:21:14;;;;;;;5.00;4.70;;;16.20;64.40;;;;;;5129550;27;43462;-67
2023/12/06 09:23:42;;;;;;;4.93;4.63;;;16.20;64.40;;;;;;5133168;27;43662;-68
2023/12/06 09:26:10;;;;;;;4.60;4.40;;;16.20;64.40;;;;;;5133037;27;43463;-67
2023/12/06 09:28:39;;;;;;;4.97;4.47;;;16.20;64.40;;;;;;5133030;27;43326;-68
2023/12/06 09:31:08;;;;;;;4.47;4.10;;;16.20;64.40;;;;;;5128006;27;43443;-67
2023/12/06 09:33:36;;;;;;;5.10;4.73;;;16.20;64.40;;;;;;5128419;27;43912;-68
2023/12/06 09:36:05;;;;;;;4.70;4.30;;;16.10;64.30;;;;;;5128031;27;43354;-69
2023/12/06 09:38:33;;;;;;;5.47;5.07;;;16.10;64.30;;;;;;5127855;27;43400;-67
2023/12/06 09:41:03;;;;;;;5.30;4.90;;;16.10;64.50;;;;;;5133262;27;43377;-69
2023/12/06 09:43:32;;;;;;;5.20;4.80;;;16.10;64.30;;;;;;5131468;27;43832;-71
2023/12/06 09:46:00;;;;;;;5.30;4.90;;;16.20;64.40;;;;;;5101405;27;44693;-71
2023/12/06 09:48:29;;;;;;;5.20;4.80;;;16.30;64.00;;;;;;5107879;27;43439;-70
2023/12/06 09:50:57;;;;;;;5.33;4.93;;;16.30;63.80;;;;;;5108591;27;43378;-71
2023/12/06 09:53:25;;;;;;;5.10;4.70;;;16.30;63.90;;;;;;5107545;27;43974;-71
2023/12/06 09:55:53;;;;;;;5.03;4.63;;;16.30;64.00;;;;;;5107879;27;43446;-71
2023/12/06 09:58:22;;;;;;;5.27;4.87;;;16.30;64.10;;;;;;5107896;27;43885;-71
2023/12/06 10:00:50;;;;;;;5.50;5.10;;;16.30;64.10;;;;;;5108140;27;43464;-71
2023/12/06 10:03:22;;;;;;;4.63;4.33;;;16.30;64.10;;;;;;5107490;27;43710;-71
2023/12/06 10:05:58;;;;;;;4.83;4.47;;;16.30;64.20;;;;;;5103106;27;44352;-71
2023/12/06 10:08:26;;;;;;;4.87;4.57;;;16.20;64.20;;;;;;5107445;27;43477;-71
2023/12/06 10:11:01;;;;;;;4.77;4.40;;;16.20;64.30;;;;;;5107565;27;43469;-71
2023/12/06 10:13:34;;;;;;;5.20;4.90;;;16.20;64.40;;;;;;5110683;27;43981;-71
2023/12/06 10:16:02;;;;;;;5.47;5.07;;;16.20;64.40;;;;;;5110825;27;43438;-71
2023/12/06 10:18:31;;;;;;;5.00;4.70;;;16.20;64.40;;;;;;5109857;27;43768;-71
2023/12/06 10:21:01;;;;;;;5.07;4.77;;;16.20;64.40;;;;;;5111086;27;43441;-71
2023/12/06 10:23:30;;;;;;;5.47;4.97;;;16.20;64.50;;;;;;5110857;27;43622;-71
2023/12/06 10:26:03;;;;;;;5.17;4.70;;;16.20;64.40;;;;;;5111045;27;43965;-71
2023/12/06 10:28:34;;;;;;;4.80;4.50;;;16.20;64.40;;;;;;5111226;27;44001;-71
2023/12/06 10:31:03;;;;;;;5.43;5.03;;;16.10;64.30;;;;;;5111507;27;43384;-70
2023/12/06 10:33:31;;;;;;;5.40;5.00;;;16.10;64.50;;;;;;5110838;27;43856;-71
2023/12/06 10:36:02;;;;;;;5.50;5.10;;;16.10;64.40;;;;;;5110695;27;43460;-70
2023/12/06 10:38:30;;;;;;;5.60;5.20;;;16.20;64.30;;;;;;5110905;27;44066;-71
2023/12/06 10:41:00;;;;;;;5.20;4.80;;;16.30;64.00;;;;;;5108593;27;43401;-71
2023/12/06 10:43:28;;;;;;;4.77;4.53;;;16.30;64.00;;;;;;5110886;27;43615;-71
2023/12/06 10:45:56;;;;;;;5.30;4.93;;;16.30;64.10;;;;;;5110600;27;43330;-71
2023/12/06 10:48:24;;;;;;;5.13;4.83;;;16.30;64.10;;;;;;5110991;27;43428;-71
2023/12/06 10:50:52;;;;;;;5.23;4.93;;;16.30;64.10;;;;;;5111252;27;43521;-71
2023/12/06 10:53:22;;;;;;;5.20;4.80;;;16.30;64.90;;;;;;5107359;27;45699;-71
2023/12/06 10:55:51;;;;;;;5.03;4.73;;;16.30;64.20;;;;;;5134816;27;43381;-66
2023/12/06 10:58:19;;;;;;;5.03;4.63;;;16.30;64.30;;;;;;5135196;27;43331;-68
2023/12/06 11:00:47;;;;;;;4.97;4.67;;;16.30;64.40;;;;;;5135838;27;43484;-68
2023/12/06 11:03:15;;;;;;;4.57;4.27;;;16.20;64.40;;;;;;5132772;27;43743;-68
2023/12/06 11:05:45;;;;;;;5.30;4.97;;;16.20;64.40;;;;;;5135737;27;43426;-67
2023/12/06 11:08:27;;;;;;;5.30;4.90;;;16.20;64.40;;;;;;5134516;27;43438;-70
2023/12/06 11:11:03;;;;;;;4.83;4.53;;;16.20;64.40;;;;;;5121475;27;43670;-68
2023/12/06 11:13:38;;;;;;;5.03;4.73;;;16.20;64.40;;;;;;5133739;27;43840;-71
2023/12/06 11:16:11;;;;;;;5.10;4.70;;;16.20;64.40;;;;;;5086088;27;44729;-71
2023/12/06 11:18:42;;;;;;;5.10;4.80;;;16.20;64.40;;;;;;5110361;27;43813;-71
2023/12/06 11:21:10;;;;;;;4.83;4.53;;;16.20;64.40;;;;;;5106507;27;43950;-71
2023/12/06 11:23:39;;;;;;;5.13;4.83;;;16.20;65.20;;;;;;5108184;27;43941;-71
2023/12/06 11:26:07;;;;;;;5.47;5.13;;;16.20;64.50;;;;;;5110034;27;43402;-72
2023/12/06 11:28:39;;;;;;;5.10;4.80;;;16.20;64.40;;;;;;5106713;27;43403;-72
2023/12/06 11:31:07;;;;;;;5.27;4.93;;;16.30;64.40;;;;;;5110573;27;43812;-71
2023/12/06 11:33:35;;;;;;;5.03;4.70;;;16.30;63.90;;;;;;5109975;27;43843;-71
2023/12/06 11:36:04;;;;;;;5.03;4.73;;;16.40;63.90;;;;;;5109981;27;43438;-72
2023/12/06 11:38:35;;;;;;;4.83;4.53;;;16.40;63.90;;;;;;5110130;27;43795;-71
2023/12/06 11:41:05;;;;;;;5.00;4.70;;;16.40;64.10;;;;;;5108177;27;43449;-71
2023/12/06 11:43:33;;;;;;;5.20;4.87;;;16.30;64.00;;;;;;5109947;27;43616;-71
2023/12/06 11:46:05;;;;;;;5.30;4.90;;;16.30;64.10;;;;;;5089160;27;45050;-71
2023/12/06 11:48:34;;;;;;;4.67;4.37;;;16.30;64.10;;;;;;5110043;27;43987;-71
2023/12/06 11:51:03;;;;;;;4.47;4.27;;;16.30;64.20;;;;;;5109864;27;43512;-72
2023/12/06 11:53:36;;;;;;;4.70;4.40;;;16.30;64.30;;;;;;5108942;27;43725;-71
2023/12/06 11:56:08;;;;;;;5.37;4.97;;;16.30;64.40;;;;;;5109668;27;43396;-71
2023/12/06 11:58:38;;;;;;;5.07;4.77;;;16.20;64.40;;;;;;5103439;27;43446;-71
2023/12/06 12:01:06;;;;;;;5.00;4.70;;;16.20;64.40;;;;;;5110275;27;43957;-71
2023/12/06 12:03:35;;;;;;;4.80;4.50;;;16.20;64.40;;;;;;5110478;27;44591;-69
2023/12/06 12:06:03;;;;;;;4.60;4.40;;;16.20;64.40;;;;;;5124112;27;43439;-70
2023/12/06 12:08:31;;;;;;;5.60;5.20;;;16.20;64.40;;;;;;5124055;27;43424;-70
2023/12/06 12:10:59;;;;;;;4.87;4.50;;;16.20;64.40;;;;;;5123101;27;43381;-69
2023/12/06 12:13:29;;;;;;;4.50;4.20;;;16.20;64.40;;;;;;5124684;27;43961;-70
2023/12/06 12:15:58;;;;;;;5.27;4.90;;;16.20;64.40;;;;;;5125059;27;43300;-70
2023/12/06 12:18:31;;;;;;;4.87;4.57;;;16.20;64.50;;;;;;5119144;27;43363;-70
2023/12/06 12:20:59;;;;;;;4.77;4.47;;;16.20;64.40;;;;;;5120439;27;43388;-70
2023/12/06 12:23:29;;;;;;;4.40;4.20;;;16.20;64.40;;;;;;5124709;27;43943;-70
2023/12/06 12:25:58;;;;;;;4.73;4.43;;;16.20;64.50;;;;;;5109316;27;43396;-71
2023/12/06 12:28:26;;;;;;;5.13;4.73;;;16.20;64.40;;;;;;5108992;27;43465;-71
2023/12/06 12:30:59;;;;;;;4.97;4.63;;;16.20;64.50;;;;;;5109537;27;43504;-71
2023/12/06 12:33:28;;;;;;;5.53;5.03;;;16.20;64.50;;;;;;5098161;27;46085;-71
2023/12/06 12:35:56;;;;;;;5.73;5.23;;;16.20;64.50;;;;;;5096753;27;45022;-71
2023/12/06 12:38:24;;;;;;;5.63;5.13;;;16.30;64.50;;;;;;5109154;27;43384;-71
2023/12/06 12:40:53;;;;;;;6.20;5.60;;;16.30;64.20;;;;;;5109094;27;43490;-71
2023/12/06 12:43:21;;;;;;;5.87;5.40;;;16.40;63.80;;;;;;5108882;27;43602;-71
2023/12/06 12:45:49;;;;;;;5.20;4.80;;;16.50;63.80;;;;;;5108826;27;43820;-71
2023/12/06 12:48:18;;;;;;;5.37;4.87;;;16.40;63.80;;;;;;5109023;27;43441;-71
2023/12/06 12:50:47;;;;;;;5.30;4.90;;;16.40;63.80;;;;;;5109037;27;43564;-71
2023/12/06 12:53:15;;;;;;;5.10;4.70;;;16.40;63.90;;;;;;5108469;27;43955;-71
2023/12/06 12:55:44;;;;;;;5.30;4.90;;;16.40;64.00;;;;;;5108725;27;43460;-71